Aviation Digital Data Service (ADDS)

Output produced by METARs form (1218 UTC 15 November 2018)
found at http://www.aviationweather.gov/metar/data/
 
UTDD 151200Z VRB02MPS 5000 FU NSC 12/04 Q1025 R09/D NOSIG RMK QFE699/0933
TAF UTDD 151200Z 1513/1601 VRB02MPS 3100 BR FU SCT030CB BKN060 
     TEMPO 1517/1601 1000 BR FU 
     PROB40 
     TEMPO 1517/1601 TS
       
UTDL 151200Z 08005MPS 6000 NSC 08/01 Q1029 R08/CLRD70 NOSIG RMK QFE732/0976
TAF UTDL 151200Z 1513/1522 08005MPS 3100 BR NSC 
     TEMPO 1519/1522 1500 BR